sensor_id;sensor_type;location;lat;lon;timestamp;pressure;altitude;pressure_sealevel;temperature;humidity
54918;BME280;40818;50.562;7.454;2023-06-10T00:09:59;97547.25;;;18.01;72.19
54918;BME280;40818;50.562;7.454;2023-06-10T00:20:10;97545.78;;;17.89;73.12
54918;BME280;40818;50.562;7.454;2023-06-10T00:30:14;97545.38;;;17.94;72.15
54918;BME280;40818;50.562;7.454;2023-06-10T00:40:20;97548.34;;;17.63;74.37
54918;BME280;40818;50.562;7.454;2023-06-10T00:50:23;97547.06;;;17.49;75.16
54918;BME280;40818;50.562;7.454;2023-06-10T01:00:29;97551.41;;;17.40;75.45
54918;BME280;40818;50.562;7.454;2023-06-10T01:10:37;97548.94;;;17.38;74.85
54918;BME280;40818;50.562;7.454;2023-06-10T01:20:44;97548.59;;;17.23;75.67
54918;BME280;40818;50.562;7.454;2023-06-10T01:30:55;97547.41;;;17.18;75.17
54918;BME280;40818;50.562;7.454;2023-06-10T01:41:03;97544.59;;;17.01;74.70
54918;BME280;40818;50.562;7.454;2023-06-10T01:51:10;97539.59;;;17.08;72.43
54918;BME280;40818;50.562;7.454;2023-06-10T02:01:13;97551.13;;;17.15;70.12
54918;BME280;40818;50.562;7.454;2023-06-10T02:11:19;97554.22;;;17.11;68.64
54918;BME280;40818;50.562;7.454;2023-06-10T02:21:23;97550.75;;;17.10;68.12
54918;BME280;40818;50.562;7.454;2023-06-10T02:31:29;97556.44;;;17.05;66.65
54918;BME280;40818;50.562;7.454;2023-06-10T02:41:36;97551.94;;;17.16;65.41
54918;BME280;40818;50.562;7.454;2023-06-10T02:51:42;97553.31;;;17.20;64.04
54918;BME280;40818;50.562;7.454;2023-06-10T03:01:47;97552.13;;;17.32;63.02
54918;BME280;40818;50.562;7.454;2023-06-10T03:11:53;97554.91;;;17.31;62.53
54918;BME280;40818;50.562;7.454;2023-06-10T03:22:07;97554.19;;;17.38;62.17
54918;BME280;40818;50.562;7.454;2023-06-10T03:32:17;97561.38;;;17.36;62.05
54918;BME280;40818;50.562;7.454;2023-06-10T03:42:21;97567.56;;;17.35;62.39
54918;BME280;40818;50.562;7.454;2023-06-10T03:52:27;97573.22;;;17.40;61.32
54918;BME280;40818;50.562;7.454;2023-06-10T04:02:30;97586.44;;;17.49;60.82
54918;BME280;40818;50.562;7.454;2023-06-10T04:12:38;97579.84;;;17.63;60.43
54918;BME280;40818;50.562;7.454;2023-06-10T04:22:41;97581.75;;;17.70;61.06
54918;BME280;40818;50.562;7.454;2023-06-10T04:32:48;97586.22;;;17.78;62.46
54918;BME280;40818;50.562;7.454;2023-06-10T04:42:52;97589.34;;;17.91;63.68
54918;BME280;40818;50.562;7.454;2023-06-10T04:52:59;97590.00;;;18.12;62.02
54918;BME280;40818;50.562;7.454;2023-06-10T05:03:03;97591.53;;;18.40;60.83
54918;BME280;40818;50.562;7.454;2023-06-10T05:13:09;97595.84;;;18.76;59.93
54918;BME280;40818;50.562;7.454;2023-06-10T05:23:13;97612.56;;;19.19;59.44
54918;BME280;40818;50.562;7.454;2023-06-10T05:33:19;97612.47;;;19.45;59.77
54918;BME280;40818;50.562;7.454;2023-06-10T05:43:22;97610.28;;;19.75;59.35
54918;BME280;40818;50.562;7.454;2023-06-10T05:53:28;97608.72;;;20.16;57.58
54918;BME280;40818;50.562;7.454;2023-06-10T06:03:31;97612.25;;;20.89;55.58
54918;BME280;40818;50.562;7.454;2023-06-10T06:13:37;97603.44;;;21.61;51.72
54918;BME280;40818;50.562;7.454;2023-06-10T06:23:41;97606.16;;;22.45;50.44
54918;BME280;40818;50.562;7.454;2023-06-10T06:33:47;97619.41;;;23.13;49.21
54918;BME280;40818;50.562;7.454;2023-06-10T06:43:51;97628.03;;;24.10;45.91
54918;BME280;40818;50.562;7.454;2023-06-10T06:54:07;97622.34;;;24.57;45.45
54918;BME280;40818;50.562;7.454;2023-06-10T07:04:11;97623.00;;;24.94;44.34
54918;BME280;40818;50.562;7.454;2023-06-10T07:14:17;97633.09;;;24.48;43.53
54918;BME280;40818;50.562;7.454;2023-06-10T07:24:21;97624.75;;;25.08;43.29
54918;BME280;40818;50.562;7.454;2023-06-10T07:34:27;97637.69;;;25.66;42.39
54918;BME280;40818;50.562;7.454;2023-06-10T07:44:30;97631.19;;;25.82;41.24
54918;BME280;40818;50.562;7.454;2023-06-10T07:54:36;97640.31;;;26.41;42.55
54918;BME280;40818;50.562;7.454;2023-06-10T08:04:40;97644.19;;;26.99;41.34
54918;BME280;40818;50.562;7.454;2023-06-10T08:14:48;97654.22;;;26.10;42.71
54918;BME280;40818;50.562;7.454;2023-06-10T08:24:52;97646.28;;;26.70;42.45
54918;BME280;40818;50.562;7.454;2023-06-10T08:34:59;97649.31;;;26.20;43.69
54918;BME280;40818;50.562;7.454;2023-06-10T08:45:03;97648.09;;;26.50;43.23
54918;BME280;40818;50.562;7.454;2023-06-10T08:55:12;97646.69;;;26.74;43.04
54918;BME280;40818;50.562;7.454;2023-06-10T09:05:18;97651.81;;;26.82;40.93
54918;BME280;40818;50.562;7.454;2023-06-10T09:15:25;97656.28;;;26.41;40.00
54918;BME280;40818;50.562;7.454;2023-06-10T09:25:36;97636.25;;;26.72;41.88
54918;BME280;40818;50.562;7.454;2023-06-10T09:35:48;97637.47;;;26.70;36.97
54918;BME280;40818;50.562;7.454;2023-06-10T09:45:55;97641.56;;;26.66;36.86
54918;BME280;40818;50.562;7.454;2023-06-10T09:56:02;97632.94;;;26.37;37.14
54918;BME280;40818;50.562;7.454;2023-06-10T10:06:05;97628.66;;;26.89;37.56
54918;BME280;40818;50.562;7.454;2023-06-10T10:16:14;97622.97;;;27.45;34.84
54918;BME280;40818;50.562;7.454;2023-06-10T10:26:18;97638.47;;;27.68;35.21
54918;BME280;40818;50.562;7.454;2023-06-10T10:36:27;97623.22;;;28.46;33.09
54918;BME280;40818;50.562;7.454;2023-06-10T10:46:30;97611.78;;;28.64;33.08
54918;BME280;40818;50.562;7.454;2023-06-10T10:56:36;97611.38;;;28.35;32.19
54918;BME280;40818;50.562;7.454;2023-06-10T11:06:52;97624.44;;;28.18;30.58
54918;BME280;40818;50.562;7.454;2023-06-10T11:16:59;97613.72;;;28.50;30.20
54918;BME280;40818;50.562;7.454;2023-06-10T11:27:24;97611.22;;;28.55;30.34
54918;BME280;40818;50.562;7.454;2023-06-10T11:37:30;97599.50;;;28.31;29.47
54918;BME280;40818;50.562;7.454;2023-06-10T11:47:33;97613.72;;;27.92;30.41
54918;BME280;40818;50.562;7.454;2023-06-10T11:57:39;97606.16;;;28.21;30.00
54918;BME280;40818;50.562;7.454;2023-06-10T12:07:43;97586.44;;;28.22;31.32
54918;BME280;40818;50.562;7.454;2023-06-10T12:17:49;97593.19;;;28.50;30.94
54918;BME280;40818;50.562;7.454;2023-06-10T12:27:53;97587.84;;;28.00;31.20
54918;BME280;40818;50.562;7.454;2023-06-10T12:38:01;97581.88;;;27.98;31.97
54918;BME280;40818;50.562;7.454;2023-06-10T12:48:08;97590.03;;;27.71;30.35
54918;BME280;40818;50.562;7.454;2023-06-10T12:58:14;97578.00;;;27.62;32.82
54918;BME280;40818;50.562;7.454;2023-06-10T13:08:18;97567.41;;;27.80;31.39
54918;BME280;40818;50.562;7.454;2023-06-10T13:18:24;97565.09;;;28.22;30.85
54918;BME280;40818;50.562;7.454;2023-06-10T13:28:27;97547.56;;;28.08;30.43
54918;BME280;40818;50.562;7.454;2023-06-10T13:38:34;97552.53;;;27.98;31.10
54918;BME280;40818;50.562;7.454;2023-06-10T13:48:37;97557.44;;;27.69;29.58
54918;BME280;40818;50.562;7.454;2023-06-10T13:58:43;97530.09;;;27.80;31.58
54918;BME280;40818;50.562;7.454;2023-06-10T14:08:47;97536.44;;;27.47;30.35
54918;BME280;40818;50.562;7.454;2023-06-10T14:18:53;97522.97;;;27.74;29.67
54918;BME280;40818;50.562;7.454;2023-06-10T14:28:56;97529.91;;;27.75;31.29
54918;BME280;40818;50.562;7.454;2023-06-10T14:39:02;97533.66;;;27.29;31.59
54918;BME280;40818;50.562;7.454;2023-06-10T14:49:06;97505.91;;;26.98;33.18
54918;BME280;40818;50.562;7.454;2023-06-10T14:59:13;97505.94;;;26.91;30.51
54918;BME280;40818;50.562;7.454;2023-06-10T15:09:16;97498.63;;;26.60;31.14
54918;BME280;40818;50.562;7.454;2023-06-10T15:19:22;97496.06;;;26.98;31.31
54918;BME280;40818;50.562;7.454;2023-06-10T15:29:26;97486.44;;;26.97;30.61
54918;BME280;40818;50.562;7.454;2023-06-10T15:39:32;97483.06;;;26.70;30.05
54918;BME280;40818;50.562;7.454;2023-06-10T15:49:36;97489.97;;;26.91;30.29
54918;BME280;40818;50.562;7.454;2023-06-10T15:59:42;97472.44;;;26.56;31.40
54918;BME280;40818;50.562;7.454;2023-06-10T16:09:46;97454.22;;;26.60;32.15
54918;BME280;40818;50.562;7.454;2023-06-10T16:19:52;97451.22;;;26.36;31.56
54918;BME280;40818;50.562;7.454;2023-06-10T16:29:55;97457.75;;;26.34;32.46
54918;BME280;40818;50.562;7.454;2023-06-10T16:40:01;97464.66;;;26.48;32.24
54918;BME280;40818;50.562;7.454;2023-06-10T16:50:06;97468.78;;;26.44;30.86
54918;BME280;40818;50.562;7.454;2023-06-10T17:00:13;97464.31;;;26.24;33.31
54918;BME280;40818;50.562;7.454;2023-06-10T17:10:17;97484.16;;;25.88;33.93
54918;BME280;40818;50.562;7.454;2023-06-10T17:20:23;97482.31;;;25.69;33.96
54918;BME280;40818;50.562;7.454;2023-06-10T17:30:27;97498.00;;;25.44;34.37
54918;BME280;40818;50.562;7.454;2023-06-10T17:40:33;97492.00;;;25.21;34.93
54918;BME280;40818;50.562;7.454;2023-06-10T17:50:36;97496.03;;;25.04;35.31
54918;BME280;40818;50.562;7.454;2023-06-10T18:00:42;97500.44;;;24.83;36.38
54918;BME280;40818;50.562;7.454;2023-06-10T18:10:46;97511.72;;;24.57;37.65
54918;BME280;40818;50.562;7.454;2023-06-10T18:20:52;97512.34;;;24.31;39.50
54918;BME280;40818;50.562;7.454;2023-06-10T18:30:56;97534.63;;;24.08;40.24
54918;BME280;40818;50.562;7.454;2023-06-10T18:41:02;97539.38;;;23.91;41.76
54918;BME280;40818;50.562;7.454;2023-06-10T18:51:05;97549.19;;;23.76;42.04
54918;BME280;40818;50.562;7.454;2023-06-10T19:01:12;97550.66;;;23.42;43.86
54918;BME280;40818;50.562;7.454;2023-06-10T19:11:15;97557.38;;;23.23;45.22
54918;BME280;40818;50.562;7.454;2023-06-10T19:21:21;97571.00;;;22.90;47.47
54918;BME280;40818;50.562;7.454;2023-06-10T19:31:25;97573.44;;;22.76;48.64
54918;BME280;40818;50.562;7.454;2023-06-10T19:41:31;97584.22;;;22.75;49.96
54918;BME280;40818;50.562;7.454;2023-06-10T19:51:34;97596.25;;;22.77;50.06
54918;BME280;40818;50.562;7.454;2023-06-10T20:01:41;97603.06;;;22.57;51.41
54918;BME280;40818;50.562;7.454;2023-06-10T20:11:44;97609.50;;;22.39;53.15
54918;BME280;40818;50.562;7.454;2023-06-10T20:21:50;97609.03;;;22.12;54.59
54918;BME280;40818;50.562;7.454;2023-06-10T20:31:54;97631.31;;;21.95;56.21
54918;BME280;40818;50.562;7.454;2023-06-10T20:42:00;97636.41;;;21.65;57.27
54918;BME280;40818;50.562;7.454;2023-06-10T20:52:04;97632.53;;;21.44;58.38
54918;BME280;40818;50.562;7.454;2023-06-10T21:02:11;97639.50;;;21.37;58.98
54918;BME280;40818;50.562;7.454;2023-06-10T21:12:14;97654.91;;;21.17;60.64
54918;BME280;40818;50.562;7.454;2023-06-10T21:22:20;97656.59;;;21.10;60.78
54918;BME280;40818;50.562;7.454;2023-06-10T21:32:24;97655.13;;;21.07;61.48
54918;BME280;40818;50.562;7.454;2023-06-10T21:42:30;97663.06;;;20.91;62.20
54918;BME280;40818;50.562;7.454;2023-06-10T21:52:33;97667.53;;;20.74;63.28
54918;BME280;40818;50.562;7.454;2023-06-10T22:02:40;97664.22;;;20.47;65.21
54918;BME280;40818;50.562;7.454;2023-06-10T22:12:43;97662.06;;;20.26;66.63
54918;BME280;40818;50.562;7.454;2023-06-10T22:22:49;97659.50;;;19.83;69.59
54918;BME280;40818;50.562;7.454;2023-06-10T22:32:53;97665.16;;;19.54;71.01
54918;BME280;40818;50.562;7.454;2023-06-10T22:42:59;97667.38;;;19.32;74.13
54918;BME280;40818;50.562;7.454;2023-06-10T22:53:03;97664.41;;;19.27;74.49
54918;BME280;40818;50.562;7.454;2023-06-10T23:03:09;97665.44;;;19.08;75.78
54918;BME280;40818;50.562;7.454;2023-06-10T23:13:12;97674.72;;;18.94;78.51
54918;BME280;40818;50.562;7.454;2023-06-10T23:23:19;97678.34;;;18.93;80.23
54918;BME280;40818;50.562;7.454;2023-06-10T23:33:33;97669.53;;;18.84;80.74
54918;BME280;40818;50.562;7.454;2023-06-10T23:43:40;97672.41;;;18.29;84.28
54918;BME280;40818;50.562;7.454;2023-06-10T23:53:44;97679.72;;;17.89;87.91
